Wetterdaten: aktuell Mittwoch, 27.05.2020 06:53
Datum Zeit Temp. A. Feuchte A. Luftdruck Regen Wind Richtung Richtung Taupunkt Windchill Windben
27.05.2020 06:53 8,4 C 93 % 1034,9 hPa 0,0 l/m 0,0 km/h (0 Bft) NO 45 7,3 C 8,4 C 1,6 km/h (1 Bft)
27.05.2020 05:53 4,1 C 92 % 1034,8 hPa 0,0 l/m 0,0 km/h (0 Bft) N 0 2,9 C 4,1 C 0,0 km/h (0 Bft)
27.05.2020 04:53 3,6 C 91 % 1034,7 hPa 0,0 l/m 0,0 km/h (0 Bft) N 0 2,3 C 3,6 C 0,0 km/h (0 Bft)
27.05.2020 03:53 4,2 C 90 % 1034,9 hPa 0,0 l/m 0,0 km/h (0 Bft) N 0 2,7 C 4,2 C 0,0 km/h (0 Bft)
27.05.2020 02:53 4,4 C 90 % 1035,0 hPa 0,0 l/m 0,0 km/h (0 Bft) NO 45 2,9 C 4,4 C 1,6 km/h (1 Bft)
27.05.2020 01:53 5,3 C 89 % 1035,2 hPa 0,0 l/m 0,0 km/h (0 Bft) N 0 3,6 C 5,3 C 0,0 km/h (0 Bft)
27.05.2020 00:53 5,8 C 88 % 1035,3 hPa 0,0 l/m 0,0 km/h (0 Bft) N 0 4,0 C 5,8 C 0,0 km/h (0 Bft)
26.05.2020 23:53 6,8 C 87 % 1035,0 hPa 0,0 l/m 0,0 km/h (0 Bft) N 0 4,8 C 6,8 C 0,0 km/h (0 Bft)
26.05.2020 22:53 7,8 C 84 % 1035,1 hPa 0,0 l/m 0,0 km/h (0 Bft) N 0 5,3 C 7,8 C 0,0 km/h (0 Bft)
26.05.2020 21:53 9,3 C 81 % 1035,2 hPa 0,0 l/m 1,6 km/h (1 Bft) NO 45 6,2 C 9,3 C 3,2 km/h (1 Bft)
26.05.2020 20:53 11,7 C 74 % 1034,8 hPa 0,0 l/m 0,0 km/h (0 Bft) N 0 7,2 C 11,7 C 0,0 km/h (0 Bft)
26.05.2020 19:53 14,0 C 67 % 1034,3 hPa 0,0 l/m 0,0 km/h (0 Bft) N 0 8,0 C 14,0 C 0,0 km/h (0 Bft)
26.05.2020 18:53 15,9 C 58 % 1034,0 hPa 0,0 l/m 3,2 km/h (1 Bft) NO 45 7,6 C 15,9 C 8,0 km/h (2 Bft)
26.05.2020 17:53 16,1 C 55 % 1033,7 hPa 0,0 l/m 4,8 km/h (1 Bft) NO 45 7,1 C 16,1 C 8,0 km/h (2 Bft)
26.05.2020 16:53 16,6 C 49 % 1033,6 hPa 0,0 l/m 4,8 km/h (1 Bft) N 360 5,8 C 16,6 C 4,8 km/h (1 Bft)
26.05.2020 15:53 16,1 C 52 % 1033,5 hPa 0,0 l/m 6,4 km/h (2 Bft) N 360 6,2 C 16,1 C 12,9 km/h (3 Bft)
26.05.2020 14:53 15,7 C 56 % 1033,6 hPa 0,0 l/m 6,4 km/h (2 Bft) N-NO 22 6,9 C 15,7 C 12,9 km/h (3 Bft)
26.05.2020 13:53 16,1 C 57 % 1033,8 hPa 0,0 l/m 9,7 km/h (2 Bft) NO 45 7,6 C 14,5 C 14,5 km/h (3 Bft)
26.05.2020 12:53 15,8 C 57 % 1033,8 hPa 0,0 l/m 8,0 km/h (2 Bft) NO 45 7,3 C 14,9 C 14,5 km/h (3 Bft)
26.05.2020 11:53 14,9 C 55 % 1033,9 hPa 0,0 l/m 3,2 km/h (1 Bft) O-NO 67 5,9 C 14,9 C 8,0 km/h (2 Bft)
26.05.2020 10:53 14,6 C 62 % 1034,3 hPa 0,0 l/m 8,0 km/h (2 Bft) W-NW 292 7,4 C 13,7 C 11,3 km/h (2 Bft)
26.05.2020 09:53 13,7 C 70 % 1034,2 hPa 0,0 l/m 3,2 km/h (1 Bft) N-NO 22 8,3 C 13,7 C 4,8 km/h (1 Bft)
26.05.2020 08:53 12,6 C 74 % 1034,2 hPa 0,0 l/m 4,8 km/h (1 Bft) N-NO 22 8,1 C 12,6 C 6,4 km/h (2 Bft)
26.05.2020 07:53 10,6 C 93 % 1033,8 hPa 0,0 l/m 0,0 km/h (0 Bft) N 0 9,5 C 10,6 C 0,0 km/h (0 Bft)
26.05.2020 07:00 7,9 C 92 % 1033,9 hPa 0,0 l/m 0,0 km/h (0 Bft) N 0 6,7 C 7,9 C 0,0 km/h (0 Bft)
_ Min-Zeit 05:19 16:16 16:56 - 07:00 - - 05:21 05:21 07:00
Minimum _ 3,4 C 47 % 1033,4 hPa - 0,0 km/h (0 Bft) - - 2,1 C 3,4 C 0,0 km/h (0 Bft)
_ Max-Zeit 17:04 07:12 01:14 07:00 12:25 - - 08:04 17:01 12:25
Maximum _ 17,2 C 93 % 1035,4 hPa 0,0 l/m 14,5 km/h
NO (3 Bft)
- - 9,6 C 17,0 C 22,5 km/h
NO (4 Bft)
Durchschnitt _ 10,8 C 74 % 1034,3 hPa #0,0 l/m 3,0 km/h (1 Bft) NO - 6,0 C 10,6 C 5,0 km/h (1 Bft)